Lafayette, IN

7:09 AM EDT on September 02, 2014 (GMT -0400)
Grissom Air Reserve Base | Change Station
CLOSE
Current Station
Airport
Location: Peru,
Elevation: 810 ft
Nearby Weather Stations

Elev 810 ft 40.65 °N, 86.15 °W | Updated 11 minutes ago

Partly Cloudy
Partly Cloudy
67 °F
Feels Like 67 °F
N
8
Wind Variable Wind from South

Today
High -- | Low -- °F
--% Chance of Precip.
Yesterday
High -- | Low -- °F
Precip. -- in
7:15 AM 8:17 PM
Waxing Crescent, 50% visible
Pressure 29.89 in
Visibility 10.0 miles
Clouds Few 19000 ft
Dew Point 67 °F
Humidity 100%
Rainfall 0.24 in
Snow Depth Not available.
UV 0 out of 12
Pollen 10.40 out of 12
Air Quality Not available.
Flu Activity Not available.
METAR KGUS 021058Z AUTO 19007KT 10SM FEW190 19/19 A2989 RMK AO2 DZE1002 SLP120 P0000 T01920192 $

More Conditions Fewer Conditions

Pressure 29.89 in
Visibility 10.0 miles
Clouds Few 19000 ft
Dew Point 67 °F
Humidity 100%
Rainfall 0.24 in
Snow Depth Not available.
UV 0 out of 12
Pollen 10.40 out of 12
Air Quality Not available.
Flu Activity Not available.
METAR KGUS 021058Z AUTO 19007KT 10SM FEW190 19/19 A2989 RMK AO2 DZE1002 SLP120 P0000 T01920192 $

More Conditions Fewer Conditions

10-Day Weather Forecast

Almanac

Astronomy

Sep. 02, 2014 Rise Set
Actual Time 7:15 AM EDT 8:17 PM EDT
Civil Twilight 6:47 AM EDT 8:45 PM EDT
Nautical Twilight 6:14 AM EDT 9:18 PM EDT
Astronomical Twilight 5:39 AM EDT 9:53 PM EDT
Moon 3:00 PM EDT 12:18 AM EDT
Length of Visible Light 13h 57m
Length of Day
13h 01m
Tomorrow will be 2m 34s shorter.
Waxing Crescent, 50% of the Moon is Illuminated
Today
Waxing Crescent
Sep 2
First Quarter
Sep 8
Full
Sep 15
Last Quarter
Sep 24
New

Today's Extremes

State Highs State Lows

Community

WunderPhotos

Upload Photos

1,749,621 photos uploaded!

WunderBlogs® & News

By Dr. Jeff Masters
Director of Meteorology, Weather Underground
By Kari Strenfel
Meteorologist, Weather Underground
By Christopher C. Burt
Weather Historian, Weather Underground
September 2, 2014
September 2, 2014
September 2, 2014

Nearby

Snow Depth

Station Depth Elevation
No new snow has been reported.

Earthquake Activity

City Distance Mag. Time & Date
No recent earthquake activity has been reported nearby.
Minimum magnitude displayed is 2.5.

Coastal Water Temperatures

Place Temperature
No Stations Reporting

Nearby Weather Stations